X  Fechar Dados meteorológicos de METAR da aviação     ENRY Moss Airport, Rygge
Temperatura
8°C Temperatura
-2°C Ponto de orvalho
50% Umidade



Vento
4 M/S
8 MPH
13 KM/H
7 NÓS



30°
NNL
Condições atuais

Limpo Limpo
Pressão 1024.92 (hPa) - 30.27 (inHg)
Visibilidade 0 (milha) - 0 (km)
Aeroporto
Código do aeroporto ENRY

Localização: Moss Airport, Rygge
Distância: 12 (km)

Metar:
ENRY 160450Z AUTO 03007KT 9999NDV NCD 08/M02 Q1025

Hora: 16-05-2022 06:50 CEST